sensor_id;sensor_type;location;lat;lon;timestamp;P1;durP1;ratioP1;P2;durP2;ratioP2
63050;SDS011;49136;47.416;19.402;2022-09-17T13:22:00;2.92;;;1.58;;
63050;SDS011;49136;47.416;19.402;2022-09-17T13:24:31;6.00;;;1.70;;
63050;SDS011;49136;47.416;19.402;2022-09-17T13:26:58;2.85;;;1.65;;
63050;SDS011;49136;47.416;19.402;2022-09-17T13:40:21;8.15;;;1.77;;
63050;SDS011;49136;47.416;19.402;2022-09-17T13:42:52;4.63;;;2.10;;
63050;SDS011;49136;47.416;19.402;2022-09-17T13:45:20;9.25;;;2.10;;
63050;SDS011;49136;47.416;19.402;2022-09-17T13:52:53;6.93;;;1.92;;
63050;SDS011;49136;47.416;19.402;2022-09-17T13:55:33;3.08;;;1.60;;
63050;SDS011;49136;47.416;19.402;2022-09-17T13:58:05;5.40;;;2.25;;
63050;SDS011;49136;47.416;19.402;2022-09-17T14:13:48;6.65;;;2.92;;
63050;SDS011;49136;47.416;19.402;2022-09-17T14:16:51;9.15;;;2.47;;
63050;SDS011;49136;47.416;19.402;2022-09-17T14:21:40;7.47;;;2.47;;
63050;SDS011;49136;47.416;19.402;2022-09-17T14:24:28;8.70;;;2.38;;
63050;SDS011;49136;47.416;19.402;2022-09-17T14:35:42;4.45;;;2.50;;
63050;SDS011;49136;47.416;19.402;2022-09-17T14:38:16;4.68;;;2.90;;
63050;SDS011;49136;47.416;19.402;2022-09-17T14:41:33;5.95;;;2.45;;
63050;SDS011;49136;47.416;19.402;2022-09-17T14:46:13;5.32;;;3.15;;
63050;SDS011;49136;47.416;19.402;2022-09-17T14:48:46;5.78;;;2.53;;
63050;SDS011;49136;47.416;19.402;2022-09-17T14:56:29;7.90;;;2.63;;
63050;SDS011;49136;47.416;19.402;2022-09-17T14:58:57;6.72;;;3.05;;
63050;SDS011;49136;47.416;19.402;2022-09-17T15:01:23;9.68;;;3.25;;
63050;SDS011;49136;47.416;19.402;2022-09-17T15:06:41;10.70;;;3.50;;
63050;SDS011;49136;47.416;19.402;2022-09-17T15:09:13;6.47;;;3.00;;
63050;SDS011;49136;47.416;19.402;2022-09-17T15:11:50;5.20;;;3.42;;
63050;SDS011;49136;47.416;19.402;2022-09-17T15:14:19;7.30;;;3.10;;
63050;SDS011;49136;47.416;19.402;2022-09-17T15:16:47;6.35;;;3.60;;
63050;SDS011;49136;47.416;19.402;2022-09-17T15:19:22;6.53;;;3.72;;
63050;SDS011;49136;47.416;19.402;2022-09-17T15:21:55;10.25;;;3.85;;
63050;SDS011;49136;47.416;19.402;2022-09-17T15:24:36;6.78;;;3.72;;
63050;SDS011;49136;47.416;19.402;2022-09-17T15:27:25;6.57;;;4.18;;
63050;SDS011;49136;47.416;19.402;2022-09-17T15:29:58;7.07;;;4.13;;
63050;SDS011;49136;47.416;19.402;2022-09-17T15:32:25;6.07;;;3.42;;
63050;SDS011;49136;47.416;19.402;2022-09-17T15:37:41;14.95;;;4.63;;
63050;SDS011;49136;47.416;19.402;2022-09-17T15:40:33;12.80;;;4.70;;
63050;SDS011;49136;47.416;19.402;2022-09-17T15:43:15;9.20;;;3.65;;
63050;SDS011;49136;47.416;19.402;2022-09-17T15:45:51;7.40;;;3.08;;
63050;SDS011;49136;47.416;19.402;2022-09-17T15:48:19;7.00;;;2.88;;
63050;SDS011;49136;47.416;19.402;2022-09-17T15:50:56;6.78;;;3.80;;
63050;SDS011;49136;47.416;19.402;2022-09-17T15:53:30;7.53;;;3.22;;
63050;SDS011;49136;47.416;19.402;2022-09-17T16:08:42;6.65;;;3.60;;
63050;SDS011;49136;47.416;19.402;2022-09-17T16:11:13;5.90;;;3.38;;
63050;SDS011;49136;47.416;19.402;2022-09-17T16:13:38;10.57;;;3.70;;
63050;SDS011;49136;47.416;19.402;2022-09-17T16:16:04;7.72;;;3.13;;
63050;SDS011;49136;47.416;19.402;2022-09-17T16:18:30;16.38;;;4.07;;
63050;SDS011;49136;47.416;19.402;2022-09-17T16:20:55;13.57;;;5.45;;
63050;SDS011;49136;47.416;19.402;2022-09-17T16:23:21;15.55;;;6.07;;
63050;SDS011;49136;47.416;19.402;2022-09-17T16:25:46;13.65;;;5.70;;
63050;SDS011;49136;47.416;19.402;2022-09-17T16:28:12;13.73;;;5.28;;
63050;SDS011;49136;47.416;19.402;2022-09-17T16:30:43;8.87;;;4.67;;
63050;SDS011;49136;47.416;19.402;2022-09-17T16:33:11;10.45;;;4.80;;
63050;SDS011;49136;47.416;19.402;2022-09-17T16:35:38;14.45;;;5.60;;
63050;SDS011;49136;47.416;19.402;2022-09-17T16:38:04;12.27;;;6.75;;
63050;SDS011;49136;47.416;19.402;2022-09-17T16:40:30;14.73;;;6.03;;
63050;SDS011;49136;47.416;19.402;2022-09-17T16:42:58;13.15;;;5.60;;
63050;SDS011;49136;47.416;19.402;2022-09-17T16:45:25;11.85;;;6.20;;
63050;SDS011;49136;47.416;19.402;2022-09-17T16:47:51;18.35;;;6.53;;
63050;SDS011;49136;47.416;19.402;2022-09-17T16:50:17;13.95;;;5.70;;
63050;SDS011;49136;47.416;19.402;2022-09-17T16:52:42;18.65;;;7.47;;
63050;SDS011;49136;47.416;19.402;2022-09-17T16:55:09;14.57;;;5.95;;
63050;SDS011;49136;47.416;19.402;2022-09-17T16:57:36;11.73;;;4.63;;
63050;SDS011;49136;47.416;19.402;2022-09-17T17:00:02;14.70;;;6.53;;
63050;SDS011;49136;47.416;19.402;2022-09-17T17:02:29;12.20;;;7.25;;
63050;SDS011;49136;47.416;19.402;2022-09-17T17:04:55;11.65;;;5.47;;
63050;SDS011;49136;47.416;19.402;2022-09-17T17:07:20;10.55;;;5.57;;
63050;SDS011;49136;47.416;19.402;2022-09-17T17:09:45;16.15;;;6.80;;
63050;SDS011;49136;47.416;19.402;2022-09-17T17:12:11;13.40;;;6.43;;
63050;SDS011;49136;47.416;19.402;2022-09-17T17:14:36;8.13;;;5.32;;
63050;SDS011;49136;47.416;19.402;2022-09-17T17:17:02;14.45;;;5.90;;
63050;SDS011;49136;47.416;19.402;2022-09-17T17:19:27;14.10;;;7.60;;
63050;SDS011;49136;47.416;19.402;2022-09-17T17:21:54;20.92;;;6.25;;
63050;SDS011;49136;47.416;19.402;2022-09-17T17:24:19;12.38;;;6.07;;
63050;SDS011;49136;47.416;19.402;2022-09-17T17:26:48;11.43;;;6.20;;
63050;SDS011;49136;47.416;19.402;2022-09-17T17:29:13;17.65;;;6.43;;
63050;SDS011;49136;47.416;19.402;2022-09-17T17:31:40;13.40;;;7.10;;
63050;SDS011;49136;47.416;19.402;2022-09-17T17:34:06;17.13;;;7.18;;
63050;SDS011;49136;47.416;19.402;2022-09-17T17:36:32;12.85;;;6.78;;
63050;SDS011;49136;47.416;19.402;2022-09-17T17:38:58;14.88;;;7.30;;
63050;SDS011;49136;47.416;19.402;2022-09-17T17:41:24;17.60;;;7.13;;
63050;SDS011;49136;47.416;19.402;2022-09-17T17:43:54;17.73;;;7.13;;
63050;SDS011;49136;47.416;19.402;2022-09-17T17:46:21;14.20;;;7.22;;
63050;SDS011;49136;47.416;19.402;2022-09-17T17:48:47;13.13;;;6.32;;
63050;SDS011;49136;47.416;19.402;2022-09-17T17:51:12;18.20;;;7.53;;
63050;SDS011;49136;47.416;19.402;2022-09-17T17:53:40;14.48;;;7.20;;
63050;SDS011;49136;47.416;19.402;2022-09-17T17:56:07;12.05;;;6.45;;
63050;SDS011;49136;47.416;19.402;2022-09-17T17:58:34;17.10;;;7.57;;
63050;SDS011;49136;47.416;19.402;2022-09-17T18:01:07;25.73;;;8.02;;
63050;SDS011;49136;47.416;19.402;2022-09-17T18:03:56;15.90;;;6.50;;
63050;SDS011;49136;47.416;19.402;2022-09-17T18:06:26;20.58;;;7.07;;
63050;SDS011;49136;47.416;19.402;2022-09-17T18:08:52;18.70;;;7.13;;
63050;SDS011;49136;47.416;19.402;2022-09-17T18:11:18;13.50;;;5.85;;
63050;SDS011;49136;47.416;19.402;2022-09-17T18:13:45;14.07;;;6.13;;
63050;SDS011;49136;47.416;19.402;2022-09-17T18:16:11;12.95;;;5.47;;
63050;SDS011;49136;47.416;19.402;2022-09-17T18:18:38;15.68;;;6.88;;
63050;SDS011;49136;47.416;19.402;2022-09-17T18:21:06;16.35;;;6.05;;
63050;SDS011;49136;47.416;19.402;2022-09-17T18:23:35;10.90;;;6.88;;
63050;SDS011;49136;47.416;19.402;2022-09-17T18:26:02;13.85;;;6.65;;
63050;SDS011;49136;47.416;19.402;2022-09-17T18:28:29;14.77;;;7.32;;
63050;SDS011;49136;47.416;19.402;2022-09-17T18:30:55;15.45;;;6.47;;
63050;SDS011;49136;47.416;19.402;2022-09-17T18:33:23;17.65;;;6.18;;
63050;SDS011;49136;47.416;19.402;2022-09-17T18:35:50;13.43;;;6.40;;
63050;SDS011;49136;47.416;19.402;2022-09-17T18:38:20;10.15;;;5.50;;
63050;SDS011;49136;47.416;19.402;2022-09-17T18:40:46;13.23;;;6.20;;
63050;SDS011;49136;47.416;19.402;2022-09-17T18:43:11;13.32;;;5.95;;
63050;SDS011;49136;47.416;19.402;2022-09-17T18:45:36;9.60;;;6.00;;
63050;SDS011;49136;47.416;19.402;2022-09-17T18:48:05;13.20;;;6.25;;
63050;SDS011;49136;47.416;19.402;2022-09-17T18:50:31;9.02;;;5.32;;
63050;SDS011;49136;47.416;19.402;2022-09-17T18:52:57;14.75;;;5.72;;
63050;SDS011;49136;47.416;19.402;2022-09-17T18:55:22;8.55;;;5.03;;
63050;SDS011;49136;47.416;19.402;2022-09-17T18:57:51;20.38;;;7.32;;
63050;SDS011;49136;47.416;19.402;2022-09-17T19:00:17;14.60;;;5.97;;
63050;SDS011;49136;47.416;19.402;2022-09-17T19:02:44;12.43;;;6.15;;
63050;SDS011;49136;47.416;19.402;2022-09-17T19:05:11;12.55;;;6.15;;
63050;SDS011;49136;47.416;19.402;2022-09-17T19:07:37;11.73;;;6.03;;
63050;SDS011;49136;47.416;19.402;2022-09-17T19:10:02;10.00;;;5.63;;
63050;SDS011;49136;47.416;19.402;2022-09-17T19:12:28;15.90;;;5.28;;
63050;SDS011;49136;47.416;19.402;2022-09-17T19:14:54;13.27;;;5.30;;
63050;SDS011;49136;47.416;19.402;2022-09-17T19:17:20;14.15;;;6.00;;
63050;SDS011;49136;47.416;19.402;2022-09-17T19:19:45;18.25;;;6.40;;
63050;SDS011;49136;47.416;19.402;2022-09-17T19:22:10;9.40;;;5.40;;
63050;SDS011;49136;47.416;19.402;2022-09-17T19:24:36;10.55;;;5.78;;
63050;SDS011;49136;47.416;19.402;2022-09-17T19:27:02;11.52;;;6.05;;
63050;SDS011;49136;47.416;19.402;2022-09-17T19:29:28;17.58;;;5.90;;
63050;SDS011;49136;47.416;19.402;2022-09-17T19:31:53;19.95;;;6.47;;
63050;SDS011;49136;47.416;19.402;2022-09-17T19:34:19;14.18;;;6.00;;
63050;SDS011;49136;47.416;19.402;2022-09-17T19:36:47;17.20;;;5.50;;
63050;SDS011;49136;47.416;19.402;2022-09-17T19:39:12;9.25;;;5.30;;
63050;SDS011;49136;47.416;19.402;2022-09-17T19:41:37;12.80;;;5.63;;
63050;SDS011;49136;47.416;19.402;2022-09-17T19:44:03;14.45;;;5.90;;
63050;SDS011;49136;47.416;19.402;2022-09-17T19:46:28;9.02;;;5.65;;
63050;SDS011;49136;47.416;19.402;2022-09-17T19:48:56;14.90;;;5.80;;
63050;SDS011;49136;47.416;19.402;2022-09-17T19:51:24;18.58;;;6.28;;
63050;SDS011;49136;47.416;19.402;2022-09-17T19:53:50;12.50;;;6.63;;
63050;SDS011;49136;47.416;19.402;2022-09-17T19:56:17;10.35;;;5.68;;
63050;SDS011;49136;47.416;19.402;2022-09-17T19:58:45;10.30;;;6.00;;
63050;SDS011;49136;47.416;19.402;2022-09-17T20:01:10;13.10;;;5.95;;
63050;SDS011;49136;47.416;19.402;2022-09-17T20:03:37;8.73;;;5.20;;
63050;SDS011;49136;47.416;19.402;2022-09-17T20:06:04;9.25;;;5.22;;
63050;SDS011;49136;47.416;19.402;2022-09-17T20:08:31;13.52;;;5.90;;
63050;SDS011;49136;47.416;19.402;2022-09-17T20:11:05;15.10;;;5.15;;
63050;SDS011;49136;47.416;19.402;2022-09-17T20:13:33;9.10;;;5.13;;
63050;SDS011;49136;47.416;19.402;2022-09-17T20:16:05;9.20;;;5.10;;
63050;SDS011;49136;47.416;19.402;2022-09-17T20:18:33;8.55;;;5.47;;
63050;SDS011;49136;47.416;19.402;2022-09-17T20:20:59;8.70;;;4.90;;
63050;SDS011;49136;47.416;19.402;2022-09-17T20:23:28;9.32;;;4.90;;
63050;SDS011;49136;47.416;19.402;2022-09-17T20:25:55;11.65;;;5.60;;
63050;SDS011;49136;47.416;19.402;2022-09-17T20:28:21;8.40;;;4.95;;
63050;SDS011;49136;47.416;19.402;2022-09-17T20:30:46;11.90;;;4.72;;
63050;SDS011;49136;47.416;19.402;2022-09-17T20:33:11;16.33;;;5.40;;
63050;SDS011;49136;47.416;19.402;2022-09-17T20:35:37;11.13;;;4.85;;
63050;SDS011;49136;47.416;19.402;2022-09-17T20:38:02;14.45;;;5.10;;
63050;SDS011;49136;47.416;19.402;2022-09-17T20:40:28;7.13;;;4.28;;
63050;SDS011;49136;47.416;19.402;2022-09-17T20:42:54;10.82;;;5.22;;
63050;SDS011;49136;47.416;19.402;2022-09-17T20:45:20;9.57;;;5.15;;
63050;SDS011;49136;47.416;19.402;2022-09-17T20:47:46;11.43;;;4.40;;
63050;SDS011;49136;47.416;19.402;2022-09-17T20:50:13;6.88;;;3.90;;
63050;SDS011;49136;47.416;19.402;2022-09-17T20:52:39;8.23;;;4.68;;
63050;SDS011;49136;47.416;19.402;2022-09-17T20:55:04;10.85;;;4.68;;
63050;SDS011;49136;47.416;19.402;2022-09-17T20:57:30;7.18;;;4.03;;
63050;SDS011;49136;47.416;19.402;2022-09-17T20:59:55;8.45;;;4.13;;
63050;SDS011;49136;47.416;19.402;2022-09-17T21:02:24;10.25;;;5.13;;
63050;SDS011;49136;47.416;19.402;2022-09-17T21:04:50;12.48;;;4.80;;
63050;SDS011;49136;47.416;19.402;2022-09-17T21:07:16;8.18;;;4.40;;
63050;SDS011;49136;47.416;19.402;2022-09-17T21:09:41;8.80;;;4.38;;
63050;SDS011;49136;47.416;19.402;2022-09-17T21:12:07;15.70;;;4.65;;
63050;SDS011;49136;47.416;19.402;2022-09-17T21:14:33;15.07;;;4.25;;
63050;SDS011;49136;47.416;19.402;2022-09-17T21:16:58;11.90;;;4.00;;
63050;SDS011;49136;47.416;19.402;2022-09-17T21:19:24;20.08;;;4.97;;
63050;SDS011;49136;47.416;19.402;2022-09-17T21:21:49;10.70;;;3.72;;
63050;SDS011;49136;47.416;19.402;2022-09-17T21:24:15;8.32;;;3.95;;
63050;SDS011;49136;47.416;19.402;2022-09-17T21:26:41;7.28;;;3.92;;
63050;SDS011;49136;47.416;19.402;2022-09-17T21:29:09;7.45;;;3.88;;
63050;SDS011;49136;47.416;19.402;2022-09-17T21:31:35;7.72;;;3.78;;
63050;SDS011;49136;47.416;19.402;2022-09-17T21:34:03;9.65;;;4.20;;
63050;SDS011;49136;47.416;19.402;2022-09-17T21:36:31;10.90;;;4.03;;
63050;SDS011;49136;47.416;19.402;2022-09-17T21:39:00;9.52;;;3.85;;
63050;SDS011;49136;47.416;19.402;2022-09-17T21:41:27;11.73;;;4.40;;
63050;SDS011;49136;47.416;19.402;2022-09-17T21:43:53;11.35;;;3.65;;
63050;SDS011;49136;47.416;19.402;2022-09-17T21:46:23;9.02;;;4.68;;
63050;SDS011;49136;47.416;19.402;2022-09-17T21:48:59;8.55;;;3.45;;
63050;SDS011;49136;47.416;19.402;2022-09-17T21:51:29;8.90;;;3.88;;
63050;SDS011;49136;47.416;19.402;2022-09-17T21:54:01;6.72;;;3.22;;
63050;SDS011;49136;47.416;19.402;2022-09-17T21:56:28;6.25;;;3.58;;
63050;SDS011;49136;47.416;19.402;2022-09-17T21:58:58;6.82;;;3.60;;
63050;SDS011;49136;47.416;19.402;2022-09-17T22:01:26;8.13;;;3.78;;
63050;SDS011;49136;47.416;19.402;2022-09-17T22:03:57;10.88;;;3.92;;
63050;SDS011;49136;47.416;19.402;2022-09-17T22:06:24;10.20;;;3.80;;
63050;SDS011;49136;47.416;19.402;2022-09-17T22:08:52;6.95;;;3.63;;
63050;SDS011;49136;47.416;19.402;2022-09-17T22:11:52;7.03;;;3.28;;
63050;SDS011;49136;47.416;19.402;2022-09-17T22:14:17;10.80;;;3.70;;
63050;SDS011;49136;47.416;19.402;2022-09-17T22:16:51;6.70;;;3.63;;
63050;SDS011;49136;47.416;19.402;2022-09-17T22:19:19;11.95;;;3.42;;
63050;SDS011;49136;47.416;19.402;2022-09-17T22:21:47;12.30;;;4.30;;
63050;SDS011;49136;47.416;19.402;2022-09-17T22:24:15;6.25;;;3.53;;
63050;SDS011;49136;47.416;19.402;2022-09-17T22:26:42;9.73;;;3.88;;
63050;SDS011;49136;47.416;19.402;2022-09-17T22:29:10;7.18;;;3.42;;
63050;SDS011;49136;47.416;19.402;2022-09-17T22:31:38;9.50;;;3.95;;
63050;SDS011;49136;47.416;19.402;2022-09-17T22:34:07;7.78;;;3.53;;
63050;SDS011;49136;47.416;19.402;2022-09-17T22:36:34;9.30;;;3.55;;
63050;SDS011;49136;47.416;19.402;2022-09-17T22:39:00;11.43;;;3.78;;
63050;SDS011;49136;47.416;19.402;2022-09-17T22:41:27;7.88;;;3.15;;
63050;SDS011;49136;47.416;19.402;2022-09-17T22:43:55;12.73;;;3.42;;
63050;SDS011;49136;47.416;19.402;2022-09-17T22:46:26;9.43;;;3.83;;
63050;SDS011;49136;47.416;19.402;2022-09-17T22:48:53;7.35;;;3.13;;
63050;SDS011;49136;47.416;19.402;2022-09-17T22:51:19;6.47;;;2.83;;
63050;SDS011;49136;47.416;19.402;2022-09-17T22:53:44;5.75;;;2.85;;
63050;SDS011;49136;47.416;19.402;2022-09-17T22:56:10;5.78;;;2.97;;
63050;SDS011;49136;47.416;19.402;2022-09-17T22:58:38;4.82;;;3.40;;
63050;SDS011;49136;47.416;19.402;2022-09-17T23:01:05;5.03;;;2.22;;
63050;SDS011;49136;47.416;19.402;2022-09-17T23:03:32;4.28;;;2.25;;
63050;SDS011;49136;47.416;19.402;2022-09-17T23:05:58;7.03;;;2.65;;
63050;SDS011;49136;47.416;19.402;2022-09-17T23:08:25;4.30;;;2.30;;
63050;SDS011;49136;47.416;19.402;2022-09-17T23:10:51;6.32;;;2.33;;
63050;SDS011;49136;47.416;19.402;2022-09-17T23:13:17;5.60;;;2.40;;
63050;SDS011;49136;47.416;19.402;2022-09-17T23:15:42;4.63;;;2.17;;
63050;SDS011;49136;47.416;19.402;2022-09-17T23:18:07;3.35;;;2.00;;
63050;SDS011;49136;47.416;19.402;2022-09-17T23:20:33;4.65;;;2.20;;
63050;SDS011;49136;47.416;19.402;2022-09-17T23:22:58;2.63;;;1.58;;
63050;SDS011;49136;47.416;19.402;2022-09-17T23:25:24;4.20;;;1.80;;
63050;SDS011;49136;47.416;19.402;2022-09-17T23:27:52;3.45;;;1.98;;
63050;SDS011;49136;47.416;19.402;2022-09-17T23:30:21;3.05;;;1.83;;
63050;SDS011;49136;47.416;19.402;2022-09-17T23:32:52;5.53;;;2.08;;
63050;SDS011;49136;47.416;19.402;2022-09-17T23:35:21;5.60;;;1.75;;
63050;SDS011;49136;47.416;19.402;2022-09-17T23:37:48;3.20;;;1.88;;
63050;SDS011;49136;47.416;19.402;2022-09-17T23:40:14;4.20;;;2.95;;
63050;SDS011;49136;47.416;19.402;2022-09-17T23:42:40;2.35;;;1.60;;
63050;SDS011;49136;47.416;19.402;2022-09-17T23:45:05;4.47;;;1.85;;
63050;SDS011;49136;47.416;19.402;2022-09-17T23:47:31;7.07;;;2.13;;
63050;SDS011;49136;47.416;19.402;2022-09-17T23:49:56;2.00;;;1.40;;
63050;SDS011;49136;47.416;19.402;2022-09-17T23:52:22;4.00;;;1.45;;
63050;SDS011;49136;47.416;19.402;2022-09-17T23:54:47;4.32;;;1.52;;
63050;SDS011;49136;47.416;19.402;2022-09-17T23:57:13;2.83;;;1.80;;
63050;SDS011;49136;47.416;19.402;2022-09-17T23:59:38;4.63;;;2.15;;
